• Join FlightAware (Why Join?)
  • Login
  • US Flag GB Flag 
22:59 EDT


 

Airport Tracker/Info


-or-


 

Live Flight TrackerFlight Track Log ✈ EJA922 ✈ 02-Jul-2013 ✈ KBUR - KUGN

Flight Track Log - Related Links

Times and Time Zones

All times are in EDT time to prevent confusion due to time zone crossing. See the EJA922 flight status page for this flight to view local times or setup timezone preferences in your user account.

Time Position Orientation Groundspeed Altitude Reporting Facility
EDT Latitude Longitude Course Direction KTS MPH feet Rate Location/Type
17:32 34.1500 -118.3667 59° Northeast 214 246 3,400  Level Southern California TRACON
17:33 34.1517 -118.4278 272° West 234 269 5,400 2,280 Climbing Los Angeles Center
17:34 34.2303 -118.4206 North 251 289 8,000 2,100 Climbing Los Angeles Center
17:35 34.3061 -118.3911 18° North 280 322 9,800 1,620 Climbing Los Angeles Center
17:36 34.3894 -118.3597 17° North 309 356 11,400 1,500 Climbing Los Angeles Center
17:37 34.5771 -118.1292 59° Northeast  Level FlightAware Approximate
17:37 34.4783 -118.3108 24° Northeast 346 398 12,900  Level Los Angeles Center
17:38 34.5411 -118.2114 53° Northeast 368 423 14,500 1,560 Climbing Los Angeles Center
17:39 34.6094 -118.0992 53° Northeast 377 434 16,500 1,620 Climbing Los Angeles Center
17:40 34.6431 -117.9561 74° East 375 432 18,200 1,440 Climbing Los Angeles Center
17:41 34.6703 -117.8300 75° East 387 445 19,500 1,200 Climbing Los Angeles Center
17:42 34.7000 -117.7033 74° East 393 452 20,700 1,200 Climbing Los Angeles Center
17:43 34.7372 -117.5458 74° East 406 467 22,000 1,200 Climbing Los Angeles Center
17:44 34.7683 -117.4131 74° East 412 474 23,300 1,080 Climbing Los Angeles Center
17:45 34.7986 -117.2789 75° East 415 478 24,300 960 Climbing Los Angeles Center
17:46 34.8303 -117.1433 74° East 421 484 25,300 1,020 Climbing Los Angeles Center
17:47 34.8700 -116.9769 74° East 428 493 26,500 960 Climbing Los Angeles Center
17:48 34.9017 -116.8361 75° East 433 498 27,300 900 Climbing Los Angeles Center
17:49 34.9350 -116.6928 74° East 439 505 28,400 1,020 Climbing Los Angeles Center
17:50 34.9811 -116.5542 68° East 445 512 29,500 960 Climbing Los Angeles Center
17:51 35.0503 -116.4656 46° Northeast 453 521 30,400 960 Climbing Los Angeles Center
17:52 35.1572 -116.3317 46° Northeast 457 526 31,600 1,140 Climbing Los Angeles Center
17:53 35.2658 -116.1950 46° Northeast 466 536 32,800 1,080 Climbing Los Angeles Center
17:54 35.3569 -116.0803 46° Northeast 471 542 33,900 1,020 Climbing Los Angeles Center
17:56 35.4494 -115.9642 46° Northeast 476 548 35,000 1,140 Climbing Los Angeles Center
17:57 35.5397 -115.8525 45° Northeast 476 548 36,300 1,500 Climbing Los Angeles Center
17:58 35.6489 -115.7119 46° Northeast 473 544 38,100 1,500 Climbing Los Angeles Center
17:59 35.7389 -115.5972 46° Northeast 469 540 39,500 1,080 Climbing Los Angeles Center
18:00 35.8283 -115.4828 46° Northeast 465 535 40,400 720 Climbing Los Angeles Center
18:01 35.9192 -115.3669 46° Northeast 471 542 41,000 240 Climbing Los Angeles Center
18:02 36.0114 -115.2489 46° Northeast 479 551 41,000  Level Los Angeles Center
18:03 36.1028 -115.0833 56° Northeast 491 565 41,000  Level Los Angeles Center
18:04 36.1517 -114.9242 69° East 497 572 41,000  Level Los Angeles Center
18:05 36.2011 -114.7644 69° East 499 574 41,000  Level Los Angeles Center
18:06 36.2497 -114.6025 70° East 502 578 41,000  Level Los Angeles Center
18:07 36.2975 -114.4411 70° East 501 577 41,000  Level Los Angeles Center
18:08 36.3461 -114.2794 69° East 502 578 41,000  Level Los Angeles Center
18:09 36.4058 -114.0867 69° East 500 575 41,000  Level Los Angeles Center
18:10 36.4633 -113.8925 70° East 499 574 41,000  Level Los Angeles Center
18:11 36.5108 -113.7311 70° East 499 574 41,000  Level Los Angeles Center
18:12 36.5628 -113.5544 70° East 495 570 41,000  Level Los Angeles Center
18:13 36.6097 -113.3958 70° East 493 567 41,000  Level Los Angeles Center
18:14 36.6561 -113.2342 70° East 497 572 41,000  Level Los Angeles Center
18:15 36.7025 -113.0719 70° East 499 574 41,000  Level Los Angeles Center
18:16 36.7489 -112.9119 70° East 496 571 41,000  Level Los Angeles Center
18:17 36.7953 -112.7497 70° East 499 574 41,000  Level Los Angeles Center
18:18 36.8514 -112.5539 70° East 501 577 41,000  Level Los Angeles Center
18:19 36.8978 -112.3906 70° East 503 579 41,000  Level Los Angeles Center
18:21 36.9442 -112.2267 70° East 504 580 41,000  Level Los Angeles Center
18:22 36.9978 -112.0325 71° East 496 571 41,000  Level Los Angeles Center
18:23 37.0436 -111.8706 70° East 497 572 41,000  Level Los Angeles Center
18:24 37.0872 -111.7089 71° East 495 570 41,000  Level Los Angeles Center
18:25 37.1350 -111.5442 70° East 498 573 41,000  Level Denver Center
18:26 37.1747 -111.3828 73° East 493 567 41,000  Level Denver Center
18:27 37.2206 -111.2189 71° East 499 574 41,000  Level Denver Center
18:28 37.2639 -111.0553 72° East 498 573 41,000  Level Denver Center
18:29 37.3081 -110.8936 71° East 493 567 41,000  Level Denver Center
18:30 37.3533 -110.7283 71° East 498 573 41,000  Level Denver Center
18:31 37.4033 -110.5322 72° East 495 570 41,000  Level Denver Center
18:32 37.4447 -110.3672 72° East 496 571 41,000  Level Denver Center
18:33 37.4875 -110.2019 72° East 496 571 41,000  Level Denver Center
18:34 37.5361 -110.0167 72° East 497 572 41,000  Level Denver Center
18:35 37.5756 -109.8622 72° East 489 563 41,000  Level Denver Center
18:36 37.6156 -109.7044 72° East 492 566 41,000 300 Level Denver Center
18:37 37.6617 -109.5225 72° East 487 560 41,700 720 Climbing Denver Center
18:38 37.7000 -109.3697 72° East 477 549 42,600 600 Climbing Denver Center
18:39 37.7442 -109.1925 72° East 473 544 43,000 180 Climbing Denver Center
18:40 37.7825 -109.0378 73° East 479 551 43,000  Level Denver Center
18:41 37.8333 -108.8611 70° East 477 549 43,000  Level Denver Center
18:42 37.8839 -108.7114 67° East 481 554 43,000  Level Denver Center
18:43 37.9439 -108.5431 66° East 474 545 43,000  Level Denver Center
18:44 37.9947 -108.3958 66° East 476 548 43,000  Level Denver Center
18:45 38.0536 -108.2244 66° East 474 545 43,000  Level Denver Center
18:46 38.1011 -108.0850 67° East 475 547 43,000  Level Denver Center
18:47 38.1586 -107.9139 67° East 475 547 43,000  Level Denver Center
18:48 38.2078 -107.7689 67° East 470 541 43,000  Level Denver Center
18:49 38.2650 -107.6000 67° East 468 539 43,000  Level Denver Center
18:50 38.3136 -107.4550 67° East 468 539 43,000  Level Denver Center
18:51 38.3700 -107.2856 67° East 467 537 43,000  Level Denver Center
18:53 38.4200 -107.1361 67° East 462 532 43,000  Level Denver Center
18:54 38.4775 -106.9908 63° Northeast 462 532 43,000  Level Denver Center
18:55 38.5478 -106.8583 56° Northeast 454 522 43,000  Level Denver Center
18:56 38.6172 -106.7258 56° Northeast 451 519 43,000  Level Denver Center
18:57 38.6956 -106.5625 58° Northeast 450 518 43,000  Level Denver Center
18:58 38.7497 -106.4178 64° Northeast 451 519 43,000  Level Denver Center
18:59 38.8025 -106.2747 65° Northeast 448 516 43,000  Level Denver Center
19:00 38.8597 -106.1208 64° Northeast 442 509 43,000  Level Denver Center
19:01 38.9122 -105.9778 65° Northeast 444 511 43,000  Level Denver Center
19:02 38.9642 -105.8350 65° Northeast 444 511 43,000  Level Denver Center
19:03 39.0172 -105.6928 64° Northeast 442 509 43,000  Level Denver Center
19:04 39.0786 -105.5219 65° Northeast 441 507 43,000  Level Denver Center
19:05 39.1297 -105.3786 65° Northeast 442 509 43,000  Level Denver Center
19:06 39.1833 -105.2358 64° Northeast 445 512 43,000  Level Denver Center
19:07 39.2350 -105.0892 66° East 453 521 43,000  Level Denver Center
19:08 39.2869 -104.9450 65° Northeast 444 511 43,000  Level Denver Center
19:09 39.3392 -104.7964 66° East 454 522 43,000  Level Denver Center
19:10 39.4011 -104.6189 66° East 460 529 43,000  Level Denver Center
19:11 39.4522 -104.4725 66° East 457 526 43,000  Level Denver Center
19:12 39.5039 -104.3250 66° East 457 526 43,000  Level Denver Center
19:13 39.5547 -104.1775 66° East 452 520 43,000  Level Denver Center
19:14 39.6172 -103.9986 66° East 455 524 43,000  Level Denver Center
19:15 39.6678 -103.8486 66° East 454 522 43,000  Level Denver Center
19:16 39.7197 -103.6997 66° East 449 517 43,000  Level Denver Center
19:17 39.7714 -103.5483 66° East 458 527 43,000  Level Denver Center
19:18 39.8222 -103.3956 67° East 462 532 43,000  Level Denver Center
19:19 39.8833 -103.2122 66° East 464 534 43,000  Level Denver Center
19:20 39.9361 -103.0581 66° East 465 535 43,000  Level Denver Center
19:22 39.9872 -102.9028 67° East 469 540 43,000  Level Denver Center
19:23 40.0381 -102.7458 67° East 471 542 43,000  Level Denver Center
19:24 40.0928 -102.5844 66° East 472 543 43,000  Level Denver Center
19:25 40.1492 -102.4069 67° East 474 545 43,000  Level Denver Center
19:26 40.1989 -102.2556 67° East 475 547 43,000  Level Denver Center
19:27 40.2564 -102.0769 67° East 477 549 43,000  Level Denver Center
19:28 40.3067 -101.9247 67° East 475 547 43,000  Level Denver Center
19:29 40.3631 -101.7453 68° East 477 549 43,000  Level Denver Center
19:30 40.4106 -101.5911 68° East 477 549 43,000  Level Denver Center
19:31 40.4675 -101.4128 67° East 475 547 43,000  Level Denver Center
19:32 40.5161 -101.2589 67° East 476 548 43,000  Level Denver Center
19:33 40.5711 -101.0783 68° East 479 551 43,000  Level Denver Center
19:34 40.6192 -100.9228 68° East 482 555 43,000  Level Denver Center
19:35 40.6753 -100.7408 68° East 485 558 43,000  Level Denver Center
19:36 40.7236 -100.5856 68° East 489 563 43,000  Level Denver Center
19:37 40.7789 -100.4039 68° East 481 554 43,000  Level Denver Center
19:38 40.8264 -100.2478 68° East 483 556 43,000  Level Denver Center
19:39 40.8817 -100.0636 68° East 484 557 43,000  Level Denver Center
19:40 40.9286 -99.9061 68° East 483 556 43,000  Level Denver Center
19:41 40.9781 -99.7389 69° East 485 558 43,000  Level Denver Center
19:42 41.0269 -99.5742 68° East 482 555 43,000  Level Denver Center
19:43 41.0758 -99.4072 69° East 484 557 43,000  Level Denver Center
19:44 41.1342 -99.2050 69° East 487 560 43,000  Level Denver Center
19:45 41.1844 -99.0306 69° East 485 558 43,000  Level Denver Center
19:46 41.2314 -98.8703 69° East 488 562 43,000  Level Denver Center
19:47 41.2553 -98.7897 68° East 493 567 43,000  Level Minneapolis Center
19:48 41.3117 -98.5878 70° East 491 565 43,000  Level Minneapolis Center
19:49 41.3589 -98.4147 70° East 489 563 43,000  Level Minneapolis Center
19:50 41.4017 -98.2064 75° East 485 558 43,000  Level Minneapolis Center
19:51 41.4358 -97.9950 78° East 490 564 43,000  Level Minneapolis Center
19:53 41.4664 -97.8161 77° East 493 567 43,000  Level Minneapolis Center
19:54 41.5011 -97.6019 78° East 493 567 43,000  Level Minneapolis Center
19:55 41.5314 -97.4203 77° East 498 573 43,000  Level Minneapolis Center
19:56 41.5594 -97.2392 78° East 499 574 43,000  Level Minneapolis Center
19:57 41.5883 -97.0556 78° East 502 578 43,000  Level Minneapolis Center
19:58 41.6169 -96.8736 78° East 500 575 43,000  Level Minneapolis Center
19:59 41.6461 -96.6922 78° East 499 574 43,000  Level Minneapolis Center
20:00 41.6731 -96.5089 79° East 499 574 43,000  Level Minneapolis Center
20:01 41.7131 -96.2506 78° East 502 578 43,000  Level Minneapolis Center
20:02 41.7394 -96.0658 79° East 500 575 43,000  Level Minneapolis Center
20:03 41.7675 -95.8819 78° East 499 574 43,000  Level Minneapolis Center
20:04 41.7931 -95.6997 79° East 496 571 43,000 -60 Level Minneapolis Center
20:05 41.8192 -95.5167 79° East 497 572 42,900 -360 Descending Minneapolis Center
20:06 41.8461 -95.3331 79° East 499 574 42,300 -780 Descending Minneapolis Center
20:07 41.8728 -95.1461 79° East 504 580 41,400 -660 Descending Minneapolis Center
20:08 41.8981 -94.9586 80° East 509 586 41,000 -240 Descending Minneapolis Center
20:09 41.9278 -94.7339 80° East 507 583 41,000 -540 Level Minneapolis Center
20:10 41.9481 -94.5842 80° East 508 585 40,000 -1,080 Descending Minneapolis Center
20:11 41.9786 -94.3614 79° East 504 580 38,800 -1,080 Descending Minneapolis Center
20:12 42.0036 -94.1756 80° East 503 579 37,800 -900 Descending Minneapolis Center
20:13 42.0283 -93.9872 80° East 508 585 37,000 -420 Descending Minneapolis Center
20:14 42.0536 -93.7936 80° East 505 581 37,000  Level Minneapolis Center
20:15 42.0783 -93.6139 79° East 497 572 37,000  Level Minneapolis Center
20:17 42.1058 -93.3964 80° East 496 571 37,000  Level Minneapolis Center
20:18 42.1269 -93.2131 81° East 498 573 37,000  Level Minneapolis Center
20:19 42.1492 -93.0303 81° East 500 575 37,000  Level Minneapolis Center
20:20 42.1678 -92.8833 80° East 502 578 37,000  Level Minneapolis Center
20:21 42.1942 -92.6628 81° East 503 579 37,000  Level Minneapolis Center
20:22 42.2197 -92.4458 81° East 498 573 37,000  Level Minneapolis Center
20:23 42.2400 -92.2694 81° East 491 565 37,000  Level Minneapolis Center
20:24 42.2603 -92.0897 81° East 489 563 37,000 -120 Level Minneapolis Center
20:25 42.2811 -91.9089 81° East 492 566 36,800 -720 Descending Minneapolis Center
20:26 42.3047 -91.6892 82° East 498 573 35,600 -960 Descending Minneapolis Center
20:27 42.3200 -91.5442 82° East 499 574 34,900 -840 Descending Minneapolis Center
20:28 42.3408 -91.3486 82° East 456 525 33,900 -1,020 Descending Minneapolis Center
20:29 42.3586 -91.1828 82° East 451 519 32,900 -900 Descending Minneapolis Center
20:30 42.3756 -91.0161 82° East 453 521 32,100 -360 Descending Minneapolis Center
20:31 42.4039 -90.7469 82° East 460 529 32,000 -120 Descending Chicago Center
20:32 42.4200 -90.5764 83° East 463 533 31,800 -780 Descending Chicago Center
20:33 42.4367 -90.4069 82° East 461 531 30,400 -1,500 Descending Chicago Center
20:35 42.4550 -90.2042 83° East 458 527 28,700 -1,620 Descending Chicago Center
20:36 42.4719 -90.0311 82° East 466 536 27,100 -840 Descending Chicago Center
20:37 42.4903 -89.8572 82° East 462 532 27,000 -420 Descending Chicago Center
20:38 42.5044 -89.6886 83° East 453 521 26,300 -1,500 Descending Chicago Center
20:39 42.5228 -89.4961 83° East 444 511 23,900 -2,100 Descending Chicago Center
20:40 42.5364 -89.3367 83° East 431 496 22,000 -1,860 Descending Chicago Center
20:41 42.5494 -89.1864 83° East 409 471 20,100 -1,800 Descending Chicago Center
20:42 42.5694 -89.0389 80° East 400 460 18,300 -1,800 Descending Chicago Center
20:43 42.5958 -88.8953 76° East 394 453 16,400 -1,740 Descending Chicago Center
20:44 42.6219 -88.7572 76° East 382 440 14,700 -1,800 Descending Chicago Center
20:45 42.6494 -88.6031 76° East 364 419 12,700 -1,740 Descending Chicago Center
20:46 42.6714 -88.4875 75° East 324 373 11,200 -1,380 Descending Chicago Center
20:47 42.6906 -88.3792 76° East 301 346 9,900 -1,500 Descending Chicago Center
20:48 42.6744 -88.2794 102° East 288 331 8,200 -1,740 Descending Chicago Center
20:49 42.6211 -88.2056 134° Southeast 277 319 6,400 -2,040 Descending Chicago Center
20:50 42.5344 -88.1700 163° South 278 320 4,000 -1,200 Descending Chicago Center
20:51 42.4706 -88.1419 162° South 249 287 4,000  Level Chicago Center
20:52 42.4097 -88.1222 167° South 231 266 4,000 -180 Level Chicago Center
20:53 42.3508 -88.1047 168° South 220 253 3,700 -480 Descending Chicago Center
20:54 42.3075 -88.0594 142° Southeast 200 230 3,100 -600 Descending Chicago Center
20:55 42.3325 -88.0022 59° Northeast 190 219 2,500 -360 Descending Chicago Center
20:56 42.3664 -87.9536 47° Northeast 179 206 2,400 -120 Descending Chicago Center